createdAt,value
2017-06-14T00:01:16.714Z,14.42
2017-06-14T00:02:16.739Z,14.51
2017-06-14T00:04:31.101Z,14.42
2017-06-14T00:05:16.809Z,14.46
2017-06-14T00:06:16.839Z,14.42
2017-06-14T00:07:16.859Z,14.35
2017-06-14T00:08:31.499Z,14.42
2017-06-14T00:09:16.906Z,14.5
2017-06-14T00:10:16.929Z,14.39
2017-06-14T00:11:16.956Z,14.39
2017-06-14T00:12:16.974Z,14.4
2017-06-14T00:13:17.000Z,14.39
2017-06-14T00:14:17.021Z,14.39
2017-06-14T00:15:17.047Z,14.32
2017-06-14T00:16:17.069Z,14.43
2017-06-14T00:17:31.714Z,14.32
2017-06-14T00:18:17.115Z,14.32
2017-06-14T00:19:17.140Z,14.35
2017-06-14T00:21:17.191Z,14.29
2017-06-14T00:22:31.828Z,14.21
2017-06-14T00:23:17.233Z,14.25
2017-06-14T00:24:31.875Z,14.17
2017-06-14T00:25:17.282Z,14.2
2017-06-14T00:27:17.326Z,14.17
2017-06-14T00:28:17.351Z,14.18
2017-06-14T00:29:17.374Z,14.24
2017-06-14T00:30:17.402Z,14.17
2017-06-14T00:31:17.421Z,14.09
2017-06-14T00:32:17.746Z,14.24
2017-06-14T00:33:17.470Z,14.17
2017-06-14T00:34:17.490Z,14.18
2017-06-14T00:36:17.543Z,14.1
2017-06-14T00:37:32.179Z,14.15
2017-06-14T00:38:17.586Z,14
2017-06-14T00:39:32.228Z,14.06
2017-06-14T00:40:17.330Z,14.04
2017-06-14T00:41:17.657Z,14.06
2017-06-14T00:42:17.685Z,14.02
2017-06-14T00:43:17.708Z,14.07
2017-06-14T00:44:17.726Z,13.91
2017-06-14T00:45:17.750Z,13.92
2017-06-14T00:46:17.776Z,14.02
2017-06-14T00:47:17.797Z,13.96
2017-06-14T00:48:17.824Z,13.97
2017-06-14T00:49:17.845Z,13.96
2017-06-14T00:50:32.486Z,13.96
2017-06-14T00:51:32.204Z,13.91
2017-06-14T00:52:17.922Z,13.97
2017-06-14T00:53:17.935Z,13.91
2017-06-14T00:54:17.960Z,13.96
2017-06-14T00:55:17.983Z,13.91
2017-06-14T00:56:18.005Z,13.89
2017-06-14T00:57:18.031Z,13.84
2017-06-14T00:58:18.056Z,13.87
2017-06-14T00:59:18.075Z,13.89
2017-06-14T01:00:17.797Z,13.78
2017-06-14T01:01:18.127Z,13.78
2017-06-14T01:02:18.148Z,13.77
2017-06-14T01:03:18.170Z,13.82
2017-06-14T01:04:17.894Z,13.81
2017-06-14T01:05:17.913Z,13.82
2017-06-14T01:06:18.240Z,13.66
2017-06-14T01:07:18.265Z,13.79
2017-06-14T01:08:32.904Z,13.78
2017-06-14T01:09:18.310Z,13.78
2017-06-14T01:10:18.334Z,13.64
2017-06-14T01:11:32.974Z,13.64
2017-06-14T01:12:18.412Z,13.67
2017-06-14T01:13:18.102Z,13.78
2017-06-14T01:14:18.427Z,13.64
2017-06-14T01:15:18.448Z,13.69
2017-06-14T01:16:18.475Z,13.64
2017-06-14T01:17:18.496Z,13.6
2017-06-14T01:18:18.518Z,13.62
2017-06-14T01:19:18.542Z,13.63
2017-06-14T01:20:18.568Z,13.69
2017-06-14T01:21:18.590Z,13.66
2017-06-14T01:22:18.613Z,13.6
2017-06-14T01:23:18.634Z,13.57
2017-06-14T01:25:33.299Z,13.62
2017-06-14T01:26:18.706Z,13.57
2017-06-14T01:27:33.346Z,13.62
2017-06-14T01:28:18.751Z,13.6
2017-06-14T01:29:18.773Z,13.57
2017-06-14T01:30:18.796Z,13.59
2017-06-14T01:31:18.819Z,13.52
2017-06-14T01:32:18.843Z,13.54
2017-06-14T01:33:18.865Z,13.51
2017-06-14T01:34:18.934Z,13.57
2017-06-14T01:35:18.927Z,13.49
2017-06-14T01:36:18.935Z,13.51
2017-06-14T01:37:18.972Z,13.46
2017-06-14T01:39:19.018Z,13.41
2017-06-14T01:40:19.033Z,13.52
2017-06-14T01:41:33.668Z,13.48
2017-06-14T01:42:19.074Z,13.44
2017-06-14T01:43:33.714Z,13.48
2017-06-14T01:44:19.119Z,13.36
2017-06-14T01:45:18.538Z,13.54
2017-06-14T01:46:19.169Z,13.38
2017-06-14T01:47:19.191Z,13.41
2017-06-14T01:48:19.215Z,13.29
2017-06-14T01:49:19.236Z,13.29
2017-06-14T01:50:18.957Z,13.32
2017-06-14T01:51:19.283Z,13.33
2017-06-14T01:56:19.404Z,13.36
2017-06-14T01:57:19.421Z,13.19
2017-06-14T01:58:19.450Z,13.33
2017-06-14T01:59:34.084Z,13.15
2017-06-14T02:00:19.188Z,13.22
2017-06-14T02:01:19.511Z,13.19
2017-06-14T02:02:19.535Z,13.17
2017-06-14T02:03:19.562Z,13.25
2017-06-14T02:04:19.584Z,13.19
2017-06-14T02:05:19.602Z,13.14
2017-06-14T02:06:19.323Z,13.15
2017-06-14T02:07:19.652Z,13.14
2017-06-14T02:08:19.673Z,13.12
2017-06-14T02:09:19.695Z,13.22
2017-06-14T02:10:19.718Z,13.15
2017-06-14T02:11:19.744Z,13.14
2017-06-14T02:12:34.382Z,13.04
2017-06-14T02:13:19.789Z,13.08
2017-06-14T02:14:34.431Z,13.04
2017-06-14T02:15:19.835Z,13.04
2017-06-14T02:16:19.856Z,13.04
2017-06-14T02:17:19.880Z,12.95
2017-06-14T02:18:19.903Z,12.97
2017-06-14T02:19:19.621Z,13.05
2017-06-14T02:20:19.952Z,13.03
2017-06-14T02:21:19.974Z,13.01
2017-06-14T02:22:19.999Z,12.96
2017-06-14T02:23:20.018Z,12.92
2017-06-14T02:24:20.043Z,12.89
2017-06-14T02:26:20.092Z,13.03
2017-06-14T02:27:20.109Z,12.97
2017-06-14T02:28:19.831Z,12.89
2017-06-14T02:29:20.210Z,12.96
2017-06-14T02:30:20.185Z,12.92
2017-06-14T02:31:20.201Z,12.93
2017-06-14T02:32:20.229Z,12.95
2017-06-14T02:33:20.268Z,12.97
2017-06-14T02:34:20.268Z,12.92
2017-06-14T02:35:20.293Z,12.87
2017-06-14T02:36:20.317Z,12.92
2017-06-14T02:37:20.341Z,12.89
2017-06-14T02:38:20.361Z,12.87
2017-06-14T02:39:20.383Z,12.92
2017-06-14T02:40:20.409Z,12.9
2017-06-14T02:41:20.432Z,12.87
2017-06-14T02:42:20.453Z,12.86
2017-06-14T02:43:20.480Z,12.77
2017-06-14T02:44:20.500Z,12.92
2017-06-14T02:45:20.519Z,12.83
2017-06-14T02:46:35.160Z,12.85
2017-06-14T02:47:20.566Z,12.85
2017-06-14T02:48:20.592Z,12.86
2017-06-14T02:49:20.613Z,12.77
2017-06-14T02:50:20.636Z,12.75
2017-06-14T02:51:20.358Z,12.77
2017-06-14T02:52:20.687Z,12.78
2017-06-14T02:53:20.703Z,12.75
2017-06-14T02:54:20.726Z,12.77
2017-06-14T02:55:20.800Z,12.71
2017-06-14T02:58:35.435Z,12.83
2017-06-14T02:59:20.538Z,12.85
2017-06-14T03:00:35.483Z,12.87
2017-06-14T03:01:20.892Z,12.79
2017-06-14T03:02:35.526Z,12.82
2017-06-14T03:03:20.931Z,12.79
2017-06-14T03:04:20.954Z,12.75
2017-06-14T03:05:20.978Z,12.77
2017-06-14T03:06:20.999Z,12.68
2017-06-14T03:07:21.022Z,12.79
2017-06-14T03:08:21.097Z,12.83
2017-06-14T03:09:21.068Z,12.71
2017-06-14T03:10:21.146Z,12.7
2017-06-14T03:11:20.810Z,12.75
2017-06-14T03:12:21.137Z,12.7
2017-06-14T03:14:21.182Z,12.78
2017-06-14T03:15:35.822Z,12.79
2017-06-14T03:16:21.227Z,12.78
2017-06-14T03:17:21.251Z,12.83
2017-06-14T03:18:35.891Z,12.85
2017-06-14T03:19:21.296Z,12.82
2017-06-14T03:20:21.318Z,12.87
2017-06-14T03:21:21.347Z,12.82
2017-06-14T03:22:21.364Z,12.85
2017-06-14T03:23:21.391Z,12.85
2017-06-14T03:24:21.414Z,12.83
2017-06-14T03:25:21.434Z,12.85
2017-06-14T03:26:21.454Z,12.87
2017-06-14T03:27:21.478Z,12.92
2017-06-14T03:28:21.500Z,13.03
2017-06-14T03:29:21.525Z,12.95
2017-06-14T03:31:36.187Z,12.96
2017-06-14T03:32:21.593Z,13.04
2017-06-14T03:33:21.311Z,13
2017-06-14T03:34:36.256Z,13.03
2017-06-14T03:35:21.358Z,13.08
2017-06-14T03:36:21.686Z,13.04
2017-06-14T03:37:21.706Z,13.07
2017-06-14T03:38:21.732Z,13.1
2017-06-14T03:39:21.752Z,13.1
2017-06-14T03:40:21.775Z,13.05
2017-06-14T03:41:21.798Z,13.14
2017-06-14T03:42:21.823Z,13.12
2017-06-14T03:44:21.866Z,13.14
2017-06-14T03:46:21.912Z,13.22
2017-06-14T03:47:36.554Z,13.17
2017-06-14T03:48:21.960Z,13.19
2017-06-14T03:49:36.602Z,13.22
2017-06-14T03:50:21.705Z,13.22
2017-06-14T03:51:22.028Z,13.19
2017-06-14T03:52:22.053Z,13.19
2017-06-14T03:53:22.075Z,13.2
2017-06-14T03:54:22.097Z,13.19
2017-06-14T03:55:22.118Z,13.3
2017-06-14T03:56:22.141Z,13.38
2017-06-14T03:57:22.166Z,13.38
2017-06-14T03:58:22.189Z,13.33
2017-06-14T03:59:21.910Z,13.38
2017-06-14T04:00:22.284Z,13.33
2017-06-14T04:01:21.958Z,13.46
2017-06-14T04:02:22.279Z,13.42
2017-06-14T04:03:36.921Z,13.49
2017-06-14T04:04:22.326Z,13.54
2017-06-14T04:05:22.350Z,13.45
2017-06-14T04:06:22.379Z,13.49
2017-06-14T04:07:22.399Z,13.52
2017-06-14T04:08:22.420Z,13.6
2017-06-14T04:09:22.444Z,13.78
2017-06-14T04:10:22.465Z,14.27
2017-06-14T04:11:22.488Z,15.01
2017-06-14T04:13:22.536Z,16.07
2017-06-14T04:14:22.560Z,16.45
2017-06-14T04:15:22.586Z,17.04
2017-06-14T04:16:22.610Z,17.68
2017-06-14T04:17:22.634Z,18.29
2017-06-14T04:18:37.276Z,18.9
2017-06-14T04:19:22.685Z,18.95
2017-06-14T04:20:37.326Z,19.46
2017-06-14T04:21:37.353Z,20.23
2017-06-14T04:22:22.765Z,20.08
2017-06-14T04:23:22.790Z,20.32
2017-06-14T04:24:22.813Z,20.35
2017-06-14T04:25:22.844Z,20.85
2017-06-14T04:26:22.569Z,21.27
2017-06-14T04:27:22.895Z,21.59
2017-06-14T04:28:22.922Z,21.75
2017-06-14T04:29:22.949Z,21.5
2017-06-14T04:30:22.980Z,21.44
2017-06-14T04:31:23.005Z,21.83
2017-06-14T04:32:23.038Z,21.46
2017-06-14T04:33:23.061Z,20.82
2017-06-14T04:34:23.094Z,21.56
2017-06-14T04:35:37.788Z,21.94
2017-06-14T04:36:23.148Z,22.42
2017-06-14T04:37:37.799Z,22.43
2017-06-14T04:38:23.208Z,22.65
2017-06-14T04:39:23.238Z,21.68
2017-06-14T04:40:23.018Z,22.1
2017-06-14T04:41:23.297Z,22.91
2017-06-14T04:42:23.326Z,23.05
2017-06-14T04:43:23.358Z,23.33
2017-06-14T04:44:23.388Z,23.39
2017-06-14T04:45:23.419Z,23.83
2017-06-14T04:47:23.481Z,24.21
2017-06-14T04:49:23.545Z,24.06
2017-06-14T04:50:38.192Z,23.94
2017-06-14T04:51:23.604Z,24.47
2017-06-14T04:52:23.636Z,24.4
2017-06-14T04:53:38.286Z,24.47
2017-06-14T04:54:23.698Z,24.73
2017-06-14T04:55:23.733Z,24.69
2017-06-14T04:56:23.764Z,25.18
2017-06-14T04:57:23.800Z,25.06
2017-06-14T04:58:23.827Z,24.16
2017-06-14T04:59:23.859Z,24.27
2017-06-14T05:00:24.651Z,24.93
2017-06-14T05:01:23.925Z,24.43
2017-06-14T05:03:23.992Z,24.96
2017-06-14T05:05:24.056Z,26.23
2017-06-14T05:06:24.089Z,25.28
2017-06-14T05:07:24.124Z,25.17
2017-06-14T05:08:24.154Z,25.38
2017-06-14T05:09:38.810Z,25.35
2017-06-14T05:10:24.223Z,25.54
2017-06-14T05:11:24.259Z,25.47
2017-06-14T05:12:24.290Z,25.5
2017-06-14T05:13:24.019Z,26.29
2017-06-14T05:14:24.056Z,26.57
2017-06-14T05:15:24.088Z,26.15
2017-06-14T05:17:24.462Z,26.45
2017-06-14T05:18:24.492Z,26.94
2017-06-14T05:19:24.532Z,25.99
2017-06-14T05:20:24.258Z,26.01
2017-06-14T05:21:39.217Z,25.77
2017-06-14T05:22:39.250Z,24.52
2017-06-14T05:23:24.665Z,24.28
2017-06-14T05:24:39.319Z,24.88
2017-06-14T05:25:24.734Z,25.57
2017-06-14T05:26:24.768Z,25.35
2017-06-14T05:27:24.802Z,25.42
2017-06-14T05:28:24.838Z,25.35
2017-06-14T05:29:24.880Z,26.3
2017-06-14T05:30:24.905Z,27
2017-06-14T05:31:24.946Z,28
2017-06-14T05:32:24.975Z,27.78
2017-06-14T05:33:25.009Z,25.9
2017-06-14T05:35:39.705Z,25.6
2017-06-14T05:36:25.118Z,26.05
2017-06-14T05:37:25.149Z,26.87
2017-06-14T05:38:25.186Z,27.25
2017-06-14T05:39:25.230Z,27.88
2017-06-14T05:40:25.255Z,27.96
2017-06-14T05:41:25.294Z,27.6
2017-06-14T05:42:25.328Z,26.54
2017-06-14T05:43:25.361Z,27.04
2017-06-14T05:44:25.092Z,28
2017-06-14T05:45:25.434Z,28.74
2017-06-14T05:46:25.469Z,27.1
2017-06-14T05:47:25.502Z,25.6
2017-06-14T05:48:25.550Z,26.44
2017-06-14T05:49:25.571Z,27.46
2017-06-14T05:50:25.609Z,28.33
2017-06-14T05:52:25.375Z,27.03
2017-06-14T05:53:25.718Z,27.54
2017-06-14T05:54:40.370Z,28
2017-06-14T05:55:25.836Z,28.66
2017-06-14T05:56:40.442Z,29
2017-06-14T05:57:25.860Z,29.46
2017-06-14T05:58:25.896Z,29.43
2017-06-14T05:59:25.927Z,29.73
2017-06-14T06:01:26.000Z,28.09
2017-06-14T06:03:26.071Z,27.51
2017-06-14T06:04:26.107Z,27.5
2017-06-14T06:06:26.178Z,27.85
2017-06-14T06:07:26.215Z,28.54
2017-06-14T06:08:26.250Z,29.45
2017-06-14T06:09:26.338Z,29.53
2017-06-14T06:10:26.323Z,29.78
2017-06-14T06:11:26.392Z,29.97
2017-06-14T06:12:41.014Z,29.3
2017-06-14T06:13:26.428Z,28.89
2017-06-14T06:14:26.163Z,27.29
2017-06-14T06:15:26.503Z,26.44
2017-06-14T06:16:26.539Z,27.14
2017-06-14T06:17:26.571Z,27.72
2017-06-14T06:18:26.304Z,28.56
2017-06-14T06:20:26.702Z,28.52
2017-06-14T06:21:26.732Z,27.85
2017-06-14T06:23:26.813Z,27.14
2017-06-14T06:24:41.455Z,26.7
2017-06-14T06:25:26.864Z,27.78
2017-06-14T06:26:26.915Z,29.02
2017-06-14T06:27:26.944Z,29.86
2017-06-14T06:28:41.593Z,29.63
2017-06-14T06:29:27.013Z,28.61
2017-06-14T06:30:27.095Z,28.86
2017-06-14T06:31:27.089Z,29.19
2017-06-14T06:32:27.179Z,28.83
2017-06-14T06:33:27.169Z,28.71
2017-06-14T06:34:27.210Z,29.79
2017-06-14T06:36:27.282Z,29.83
2017-06-14T06:37:27.325Z,30
2017-06-14T06:38:41.964Z,30.82
2017-06-14T06:40:27.434Z,30.15
2017-06-14T06:41:27.456Z,29.51
2017-06-14T06:42:27.535Z,30.31
2017-06-14T06:43:27.541Z,30.19
2017-06-14T06:44:42.191Z,31.19
2017-06-14T06:45:27.613Z,31.63
2017-06-14T06:46:27.643Z,31.39
2017-06-14T06:47:27.678Z,31.76
2017-06-14T06:48:27.726Z,31.39
2017-06-14T06:49:27.744Z,30.15
2017-06-14T06:50:27.795Z,28.44
2017-06-14T06:51:27.831Z,27.31
2017-06-14T06:52:27.859Z,26.02
2017-06-14T06:53:27.902Z,26.01
2017-06-14T06:54:27.942Z,26.6
2017-06-14T06:55:27.976Z,27.39
2017-06-14T06:56:28.022Z,27.78
2017-06-14T06:58:28.077Z,27.63
2017-06-14T06:59:42.740Z,28.44
2017-06-14T07:00:28.213Z,29.3
2017-06-14T07:01:28.187Z,29.98
2017-06-14T07:02:28.228Z,29.24
2017-06-14T07:03:28.258Z,29.86
2017-06-14T07:04:28.302Z,30.47
2017-06-14T07:05:28.331Z,30.64
2017-06-14T07:06:28.370Z,30.39
2017-06-14T07:07:28.406Z,31.17
2017-06-14T07:09:28.484Z,28.92
2017-06-14T07:10:28.528Z,28.36
2017-06-14T07:11:28.559Z,28.71
2017-06-14T07:12:28.646Z,29.55
2017-06-14T07:13:28.632Z,30.01
2017-06-14T07:14:28.662Z,29.28
2017-06-14T07:15:28.401Z,27.32
2017-06-14T07:16:28.757Z,26.02
2017-06-14T07:18:28.816Z,27.59
2017-06-14T07:19:28.848Z,27.25
2017-06-14T07:20:28.580Z,27.21
2017-06-14T07:21:28.915Z,27.39
2017-06-14T07:22:28.956Z,26.51
2017-06-14T07:23:28.691Z,27.14
2017-06-14T07:24:28.725Z,27.78
2017-06-14T07:25:29.073Z,27.57
2017-06-14T07:26:29.097Z,28.14
2017-06-14T07:27:28.828Z,28.71
2017-06-14T07:28:43.489Z,28.4
2017-06-14T07:29:29.212Z,27.7
2017-06-14T07:31:43.914Z,28.86
2017-06-14T07:32:29.327Z,28.98
2017-06-14T07:33:29.349Z,27.75
2017-06-14T07:34:29.385Z,26.69
2017-06-14T07:35:29.119Z,26.44
2017-06-14T07:36:29.458Z,26.44
2017-06-14T07:37:29.495Z,26.6
2017-06-14T07:38:29.531Z,27.02
2017-06-14T07:39:29.566Z,28.22
2017-06-14T07:41:29.639Z,26.52
2017-06-14T07:42:29.677Z,26.47
2017-06-14T07:43:29.713Z,27.13
2017-06-14T07:44:44.369Z,27.19
2017-06-14T07:45:29.787Z,27.99
2017-06-14T07:46:29.821Z,28.56
2017-06-14T07:47:44.475Z,27.77
2017-06-14T07:48:29.897Z,27.9
2017-06-14T07:49:29.939Z,28.24
2017-06-14T07:50:29.982Z,27.74
2017-06-14T07:51:30.004Z,28.24
2017-06-14T07:52:29.744Z,28.25
2017-06-14T07:54:30.120Z,26.87
2017-06-14T07:55:30.153Z,27.43
2017-06-14T07:56:30.188Z,27.04
2017-06-14T07:57:30.227Z,26.58
2017-06-14T07:58:30.275Z,26.81
2017-06-14T07:59:30.312Z,26.65
2017-06-14T08:00:30.537Z,25.17
2017-06-14T08:01:30.429Z,24.8
2017-06-14T08:02:30.155Z,24.77
2017-06-14T08:03:44.750Z,24.37
2017-06-14T08:04:30.481Z,24.18
2017-06-14T08:05:30.510Z,24.76
2017-06-14T08:06:30.545Z,25.06
2017-06-14T08:07:30.591Z,25.24
2017-06-14T08:08:30.610Z,24.6
2017-06-14T08:11:30.724Z,24.58
2017-06-14T08:12:30.764Z,24.69
2017-06-14T08:13:30.806Z,24.83
2017-06-14T08:14:30.822Z,24.69
2017-06-14T08:15:30.557Z,25.2
2017-06-14T08:16:30.907Z,26.06
2017-06-14T08:17:30.945Z,25.95
2017-06-14T08:18:30.661Z,25.99
2017-06-14T08:19:45.608Z,25.32
2017-06-14T08:20:31.032Z,25.08
2017-06-14T08:21:31.077Z,25.03
2017-06-14T08:22:31.104Z,24.06
2017-06-14T08:23:31.144Z,23.68
2017-06-14T08:24:45.789Z,23.57
2017-06-14T08:25:31.206Z,24.46
2017-06-14T08:26:31.245Z,25.03
2017-06-14T08:27:31.266Z,25.75
2017-06-14T08:28:31.305Z,26.09
2017-06-14T08:31:45.710Z,23.33
2017-06-14T08:32:31.484Z,23.38
2017-06-14T08:33:31.472Z,22.7
2017-06-14T08:34:46.120Z,22.58
2017-06-14T08:35:31.565Z,23.02
2017-06-14T08:36:31.568Z,23.84
2017-06-14T08:37:31.300Z,24.69
2017-06-14T08:38:46.256Z,25.99
2017-06-14T08:39:31.670Z,26.87
2017-06-14T08:40:31.702Z,26.67
2017-06-14T08:41:31.740Z,26.05
2017-06-14T08:42:31.771Z,25.7
2017-06-14T08:43:31.801Z,25.55
2017-06-14T08:44:31.829Z,25.82
2017-06-14T08:45:31.867Z,26.35
2017-06-14T08:46:31.905Z,26.3
2017-06-14T08:48:31.961Z,26.58
2017-06-14T08:49:31.982Z,26.3
2017-06-14T08:50:32.013Z,25.43
2017-06-14T08:51:32.048Z,24.73
2017-06-14T08:52:32.083Z,23.85
2017-06-14T08:53:32.113Z,23.35
2017-06-14T08:54:32.145Z,23.07
2017-06-14T08:55:32.184Z,23.73
2017-06-14T08:56:32.211Z,24.27
2017-06-14T08:57:32.242Z,24.02
2017-06-14T08:58:31.970Z,24.32
2017-06-14T08:59:32.303Z,24.45
2017-06-14T09:00:32.338Z,25.43
2017-06-14T09:01:32.373Z,26.07
2017-06-14T09:02:32.403Z,27.06
2017-06-14T09:03:32.132Z,27.46
2017-06-14T09:04:32.165Z,27.24
2017-06-14T09:05:32.498Z,27.07
2017-06-14T09:06:47.148Z,26.47
2017-06-14T09:07:32.564Z,25.7
2017-06-14T09:08:32.595Z,24.73
2017-06-14T09:09:32.623Z,24.2
2017-06-14T09:10:32.658Z,23.57
2017-06-14T09:11:32.689Z,23.27
2017-06-14T09:12:32.418Z,22.7
2017-06-14T09:13:32.755Z,23.76
2017-06-14T09:14:32.783Z,24.15
2017-06-14T09:16:32.846Z,22.97
2017-06-14T09:17:32.577Z,23.83
2017-06-14T09:18:32.914Z,24.45
2017-06-14T09:19:47.561Z,23.75
2017-06-14T09:20:32.974Z,24.39
2017-06-14T09:21:33.008Z,24.81
2017-06-14T09:22:47.655Z,24.6
2017-06-14T09:23:33.072Z,25.03
2017-06-14T09:24:32.792Z,25.15
2017-06-14T09:25:33.132Z,25.17
2017-06-14T09:26:33.159Z,25.27
2017-06-14T09:27:33.192Z,25.05
2017-06-14T09:28:47.847Z,25.18
2017-06-14T09:29:33.252Z,25.75
2017-06-14T09:30:33.308Z,26.69
2017-06-14T09:31:33.314Z,27.1
2017-06-14T09:34:48.029Z,27.85
2017-06-14T09:35:48.062Z,27.88
2017-06-14T09:36:33.471Z,27.07
2017-06-14T09:37:33.507Z,26.45
2017-06-14T09:38:48.153Z,25.15
2017-06-14T09:39:33.565Z,24.12
2017-06-14T09:40:33.601Z,23.43
2017-06-14T09:41:33.681Z,23.02
2017-06-14T09:42:33.662Z,23.09
2017-06-14T09:44:33.420Z,23.54
2017-06-14T09:45:33.755Z,23.95
2017-06-14T09:46:33.832Z,24.95
2017-06-14T09:49:33.882Z,25.13
2017-06-14T09:50:33.908Z,24.2
2017-06-14T09:51:48.559Z,23
2017-06-14T09:52:33.972Z,22.65
2017-06-14T09:53:34.001Z,22.7
2017-06-14T09:54:48.347Z,22.49
2017-06-14T09:55:34.063Z,22.55
2017-06-14T09:56:34.143Z,23.32
2017-06-14T09:57:34.123Z,24
2017-06-14T09:58:34.153Z,24.13
2017-06-14T09:59:34.187Z,23.43
2017-06-14T10:00:34.217Z,23.13
2017-06-14T10:01:34.248Z,23.69
2017-06-14T10:02:34.274Z,23.79
2017-06-14T10:03:34.308Z,23.42
2017-06-14T10:05:34.416Z,24.34
2017-06-14T10:06:34.397Z,25.35
2017-06-14T10:07:49.045Z,26.54
2017-06-14T10:08:34.458Z,27.07
2017-06-14T10:09:48.807Z,28.12
2017-06-14T10:10:34.540Z,28.3
2017-06-14T10:11:34.550Z,28.22
2017-06-14T10:12:34.579Z,28.54
2017-06-14T10:13:34.611Z,28.51
2017-06-14T10:14:34.641Z,28.71
2017-06-14T10:15:34.668Z,28.61
2017-06-14T10:16:34.750Z,28.24
2017-06-14T10:17:34.730Z,27.84
2017-06-14T10:18:34.459Z,26.75
2017-06-14T10:19:34.792Z,26.75
2017-06-14T10:20:34.824Z,26.99
2017-06-14T10:21:49.475Z,26.2
2017-06-14T10:22:34.883Z,26.15
2017-06-14T10:23:34.917Z,26.33
2017-06-14T10:24:34.947Z,26.43
2017-06-14T10:25:34.980Z,26.44
2017-06-14T10:26:35.008Z,26.48
2017-06-14T10:27:35.095Z,26.05
2017-06-14T10:28:35.072Z,25.55
2017-06-14T10:29:35.100Z,25.32
2017-06-14T10:30:35.131Z,25.54
2017-06-14T10:31:34.861Z,25.46
2017-06-14T10:32:35.199Z,25.52
2017-06-14T10:33:35.224Z,25.02
2017-06-14T10:34:49.878Z,24.57
2017-06-14T10:35:35.284Z,24.57
2017-06-14T10:36:35.317Z,23.79
2017-06-14T10:37:35.349Z,24.02
2017-06-14T10:38:35.380Z,24.46
2017-06-14T10:39:50.027Z,24.76
2017-06-14T10:40:35.133Z,24.93
2017-06-14T10:41:50.087Z,25.32
2017-06-14T10:42:35.497Z,25.42
2017-06-14T10:43:35.528Z,25.46
2017-06-14T10:44:35.558Z,25.36
2017-06-14T10:45:35.589Z,25.32
2017-06-14T10:46:35.623Z,24.1
2017-06-14T10:47:35.651Z,23.1
2017-06-14T10:48:35.679Z,23.09
2017-06-14T10:49:35.406Z,23.55
2017-06-14T10:50:35.745Z,23.69
2017-06-14T10:51:35.769Z,23.39
2017-06-14T10:52:35.804Z,23.01
2017-06-14T10:53:50.502Z,23.91
2017-06-14T10:54:50.481Z,24.1
2017-06-14T10:55:50.509Z,24.52
2017-06-14T10:56:35.923Z,24.52
2017-06-14T10:57:50.570Z,24.61
2017-06-14T10:58:35.984Z,24.8
2017-06-14T10:59:36.063Z,24.61
2017-06-14T11:00:36.092Z,24.6
2017-06-14T11:01:36.071Z,24.78
2017-06-14T11:02:36.103Z,24.22
2017-06-14T11:03:36.434Z,23.58
2017-06-14T11:04:36.170Z,23.28
2017-06-14T11:07:36.250Z,23.63
2017-06-14T11:09:36.311Z,23.88
2017-06-14T11:10:50.958Z,24.53
2017-06-14T11:11:36.371Z,24.95
2017-06-14T11:12:36.401Z,25.18
2017-06-14T11:13:51.047Z,25.15
2017-06-14T11:14:36.457Z,25.08
2017-06-14T11:15:36.490Z,24.53
2017-06-14T11:16:36.516Z,24.78
2017-06-14T11:17:36.545Z,24.93
2017-06-14T11:18:36.575Z,24.87
2017-06-14T11:19:36.611Z,24.95
2017-06-14T11:21:36.674Z,25.17
2017-06-14T11:22:36.705Z,25.52
2017-06-14T11:23:36.743Z,25.69
2017-06-14T11:24:36.765Z,25.77
2017-06-14T11:25:36.794Z,25.43
2017-06-14T11:26:36.839Z,25.39
2017-06-14T11:27:36.858Z,25.45
2017-06-14T11:29:51.530Z,25.3
2017-06-14T11:30:36.936Z,25.09
2017-06-14T11:31:36.959Z,24.76
2017-06-14T11:32:36.989Z,24.4
2017-06-14T11:33:37.024Z,24.43
2017-06-14T11:35:37.077Z,23.85
2017-06-14T11:36:37.112Z,23.9
2017-06-14T11:37:37.137Z,24.22
2017-06-14T11:38:37.166Z,24.34
2017-06-14T11:39:36.895Z,24.49
2017-06-14T11:40:37.241Z,24.53
2017-06-14T11:42:37.292Z,24.1
2017-06-14T11:43:37.313Z,24.09
2017-06-14T11:44:51.969Z,24.15
2017-06-14T11:45:37.374Z,23.83
2017-06-14T11:46:37.408Z,23.93
2017-06-14T11:47:37.432Z,23.94
2017-06-14T11:48:37.462Z,23.73
2017-06-14T11:49:37.501Z,24.03
2017-06-14T11:50:37.522Z,23.8
2017-06-14T11:51:37.550Z,23.1
2017-06-14T11:52:37.578Z,22.95
2017-06-14T11:53:37.606Z,23.13
2017-06-14T11:54:37.639Z,23.23
2017-06-14T11:55:37.667Z,23.61
2017-06-14T11:56:37.692Z,23.57
2017-06-14T11:57:37.417Z,23.88
2017-06-14T11:58:37.751Z,24.05
2017-06-14T11:59:37.780Z,24.13
2017-06-14T12:00:37.509Z,24.43
2017-06-14T12:01:37.839Z,24.78
2017-06-14T12:02:37.868Z,25.21
2017-06-14T12:03:37.593Z,25.15
2017-06-14T12:04:37.975Z,24.95
2017-06-14T12:05:37.953Z,24.81
2017-06-14T12:06:37.677Z,25.03
2017-06-14T12:07:38.072Z,25.03
2017-06-14T12:08:38.050Z,25.2
2017-06-14T12:09:38.068Z,24.93
2017-06-14T12:10:38.096Z,25.08
2017-06-14T12:12:38.159Z,25.09
2017-06-14T12:13:37.882Z,24.58
2017-06-14T12:14:38.214Z,24.68
2017-06-14T12:15:38.242Z,24.98
2017-06-14T12:16:52.890Z,24.78
2017-06-14T12:17:37.695Z,24.65
2017-06-14T12:18:38.333Z,24.25
2017-06-14T12:19:38.369Z,24.1
2017-06-14T12:20:38.399Z,24.08
2017-06-14T12:21:38.419Z,24.37
2017-06-14T12:22:38.449Z,24.52
2017-06-14T12:23:38.482Z,24.58
2017-06-14T12:24:38.505Z,24.78
2017-06-14T12:25:38.535Z,24.67
2017-06-14T12:26:38.260Z,24.55
2017-06-14T12:27:38.594Z,24.46
2017-06-14T12:28:38.628Z,24.13
2017-06-14T12:29:38.648Z,23.91
2017-06-14T12:30:38.681Z,23.68
2017-06-14T12:31:38.705Z,23.69
2017-06-14T12:32:53.356Z,23.87
2017-06-14T12:33:38.469Z,24.03
2017-06-14T12:34:38.493Z,24.4
2017-06-14T12:35:38.519Z,24.42
2017-06-14T12:36:38.852Z,24.57
2017-06-14T12:37:38.883Z,24.77
2017-06-14T12:38:38.911Z,24.85
2017-06-14T12:40:38.663Z,24.35
2017-06-14T12:41:38.995Z,24.37
2017-06-14T12:42:39.025Z,24.15
2017-06-14T12:43:39.058Z,24.34
2017-06-14T12:44:53.705Z,24.47
2017-06-14T12:45:39.115Z,24.58
2017-06-14T12:46:38.838Z,24.58
2017-06-14T12:47:39.174Z,24.68
2017-06-14T12:48:53.513Z,24.55
2017-06-14T12:49:39.226Z,24.58
2017-06-14T12:50:39.259Z,24.71
2017-06-14T12:51:39.287Z,24.37
2017-06-14T12:52:39.314Z,24.27
2017-06-14T12:53:39.342Z,24.28
2017-06-14T12:54:39.371Z,24.27
2017-06-14T12:55:39.400Z,24.31
2017-06-14T12:56:39.428Z,24.42
2017-06-14T12:57:39.460Z,24.42
2017-06-14T12:58:39.537Z,24.4
2017-06-14T13:00:54.164Z,24.4
2017-06-14T13:01:54.193Z,24.39
2017-06-14T13:02:39.604Z,24.37
2017-06-14T13:03:39.629Z,24.34
2017-06-14T13:04:54.278Z,24.18
2017-06-14T13:05:39.691Z,23.91
2017-06-14T13:06:39.745Z,23.36
2017-06-14T13:07:40.045Z,23.23
2017-06-14T13:08:39.470Z,23.19
2017-06-14T13:09:39.804Z,23.54
2017-06-14T13:10:39.828Z,23.75
2017-06-14T13:11:39.861Z,23.53
2017-06-14T13:12:39.888Z,23.61
2017-06-14T13:13:39.956Z,23.85
2017-06-14T13:14:39.945Z,23.91
2017-06-14T13:16:40.006Z,23.6
2017-06-14T13:17:40.032Z,23.63
2017-06-14T13:18:40.058Z,23.75
2017-06-14T13:19:54.708Z,24.12
2017-06-14T13:20:40.118Z,24.3
2017-06-14T13:21:40.143Z,24.08
2017-06-14T13:22:40.173Z,24.34
2017-06-14T13:23:40.252Z,24.22
2017-06-14T13:24:40.235Z,24.21
2017-06-14T13:25:39.954Z,23.93
2017-06-14T13:27:40.015Z,23.8
2017-06-14T13:28:40.342Z,23.91
2017-06-14T13:29:40.071Z,24.16
2017-06-14T13:31:40.430Z,24.45
2017-06-14T13:32:40.460Z,24.39
2017-06-14T13:33:55.103Z,24.28
2017-06-14T13:34:40.516Z,23.72
2017-06-14T13:35:40.542Z,23.33
2017-06-14T13:36:40.266Z,23.43
2017-06-14T13:37:40.295Z,23.63
2017-06-14T13:38:40.324Z,23.65
2017-06-14T13:39:40.654Z,24.03
2017-06-14T13:40:40.684Z,24.1
2017-06-14T13:41:40.411Z,24.24
2017-06-14T13:42:40.741Z,24
2017-06-14T13:43:40.767Z,23.85
2017-06-14T13:44:40.797Z,24.03
2017-06-14T13:46:40.856Z,24.4
2017-06-14T13:48:55.529Z,24.53
2017-06-14T13:49:40.940Z,24.3
2017-06-14T13:50:40.971Z,24.43
2017-06-14T13:51:55.663Z,24.4
2017-06-14T13:52:41.026Z,24.27
2017-06-14T13:53:41.051Z,23.87
2017-06-14T13:54:41.088Z,23.88
2017-06-14T13:55:41.107Z,24
2017-06-14T13:56:41.140Z,24.16
2017-06-14T13:57:41.170Z,24.18
2017-06-14T13:58:41.193Z,24.18
2017-06-14T13:59:41.220Z,24.27
2017-06-14T14:02:41.307Z,24.58
2017-06-14T14:03:41.343Z,24.5
2017-06-14T14:04:55.983Z,23.98